Terminal Aerodrome Forecast
Issued by NWS Pueblo, CO

Home | Current Version | Previous Version | Text Only | Print | Product List | Glossary On
Versions: 1 2 3 4 5 6 7 8 9 10 11 12 13 14
000
FTUS45 KPUB 191125
TAFALS
TAF
KALS 191125Z 1912/2012 VRB06KT P6SM FEW140 BKN200
     FM192000 20008KT P6SM BKN140
     FM200300 17007KT P6SM SCT120 BKN200=

USA.gov is the U.S. government's official web portal to all federal, state and local government web resources and services.